Time;durP1;ratioP1;P1;durP2;ratioP2;P2;SDS_P1;SDS_P2;PMS_P1;PMS_P2;Temp;Humidity;BMP_temperature;BMP_pressure;BME280_temperature;BME280_humidity;BME280_pressure;Samples;Min_cycle;Max_cycle;Signal;HPM_P1;HPM_P2
2023/10/15 00:01:08;;;;;;;;;;;;;;;;;;4991344;28;89461;-70
2023/10/15 00:03:33;;;;;;;;;;;;;;;;;;4987739;28;90175;-72
2023/10/15 00:05:59;;;;;;;;;;;;;;;;;;4987953;28;89776;-71
2023/10/15 00:08:24;;;;;;;;;;;;;;;;;;4987236;28;90591;-70
2023/10/15 00:10:50;;;;;;;;;;;;;;;;;;4986657;28;90889;-71
2023/10/15 00:13:15;;;;;;;;;;;;;;;;;;4987751;28;89586;-71
2023/10/15 00:15:40;;;;;;;;;;;;;;;;;;4987927;28;90781;-70
2023/10/15 00:18:07;;;;;;;;;;;;;;;;;;4988201;28;89476;-70
2023/10/15 00:20:35;;;;;;;;;;;;;;;;;;4969840;28;89212;-69
2023/10/15 00:23:06;;;;;;;;;;;;;;;;;;4991266;28;89703;-68
2023/10/15 00:25:36;;;;;;;;;;;;;;;;;;4987928;28;89778;-69
2023/10/15 00:28:05;;;;;;;;;;;;;;;;;;4987430;28;89629;-69
2023/10/15 00:30:34;;;;;;;;;;;;;;;;;;4987403;28;89937;-70
2023/10/15 00:33:11;;;;;;;;;;;;;;;;;;4987461;28;89301;-68
2023/10/15 00:35:36;;;;;;;;;;;;;;;;;;4987911;28;90688;-68
2023/10/15 00:38:11;;;;;;;;;;;;;;;;;;4987516;28;89409;-70
2023/10/15 00:40:41;;;;;;;;;;;;;;;;;;4987568;28;89722;-69
2023/10/15 00:43:06;;;;;;;;;;;;;;;;;;4968989;28;90796;-68
2023/10/15 00:45:39;;;;;;;;;;;;;;;;;;4989815;28;89387;-68
2023/10/15 00:50:38;;;;;;;;;;;;;;;;;;4987127;28;90360;-68
2023/10/15 00:53:06;;;;;;;;;;;;;;;;;;4987124;28;89106;-68
2023/10/15 00:55:35;;;;;;;;;;;;;;;;;;4986856;28;89932;-70
2023/10/15 00:58:07;;;;;;;;;;;;;;;;;;4986662;28;90566;-71
2023/10/15 01:03:25;;;;;;;;;;;;;;;;;;4987129;28;89329;-72
2023/10/15 01:05:53;;;;;;;;;;;;;;;;;;4987036;28;89861;-72
2023/10/15 01:08:27;;;;;;;;;;;;;;;;;;4990197;28;89469;-70
2023/10/15 01:11:08;;;;;;;;;;;;;;;;;;4983821;28;90357;-70
2023/10/15 01:13:34;;;;;;;;;;;;;;;;;;4987285;28;89753;-68
2023/10/15 01:16:03;;;;;;;;;;;;;;;;;;4969467;28;90133;-68
2023/10/15 01:18:28;;;;;;;;;;;;;;;;;;4987071;28;90620;-68
2023/10/15 01:20:54;;;;;;;;;;;;;;;;;;4996107;28;89567;-68
2023/10/15 01:23:28;;;;;;;;;;;;;;;;;;4987803;28;90776;-68
2023/10/15 01:26:00;;;;;;;;;;;;;;;;;;5006424;28;90068;-68
2023/10/15 01:28:48;;;;;;;;;;;;;;;;;;5006337;28;89535;-69
2023/10/15 01:31:15;;;;;;;;;;;;;;;;;;5008845;28;90392;-71
2023/10/15 01:33:46;;;;;;;;;;;;;;;;;;5006923;28;89015;-69
2023/10/15 01:36:16;;;;;;;;;;;;;;;;;;5006578;28;89519;-68
2023/10/15 01:38:43;;;;;;;;;;;;;;;;;;5006160;28;89297;-70
2023/10/15 01:41:13;;;;;;;;;;;;;;;;;;5007208;28;89256;-68
2023/10/15 01:43:38;;;;;;;;;;;;;;;;;;4987429;28;90667;-68
2023/10/15 01:46:10;;;;;;;;;;;;;;;;;;4986803;28;89759;-68
2023/10/15 01:48:41;;;;;;;;;;;;;;;;;;4984891;28;89726;-68
2023/10/15 01:51:07;;;;;;;;;;;;;;;;;;4970015;28;90034;-68
2023/10/15 01:53:39;;;;;;;;;;;;;;;;;;4989286;28;89969;-71
2023/10/15 01:56:04;;;;;;;;;;;;;;;;;;4986462;28;90046;-68
2023/10/15 01:58:31;;;;;;;;;;;;;;;;;;4985941;28;89458;-68
2023/10/15 02:00:56;;;;;;;;;;;;;;;;;;4986729;28;89354;-68
2023/10/15 02:03:25;;;;;;;;;;;;;;;;;;4986401;28;90876;-68
2023/10/15 02:05:54;;;;;;;;;;;;;;;;;;4986388;28;89428;-68
2023/10/15 02:08:25;;;;;;;;;;;;;;;;;;4986451;28;89804;-70
2023/10/15 02:10:52;;;;;;;;;;;;;;;;;;4985059;28;89717;-69
2023/10/15 02:13:17;;;;;;;;;;;;;;;;;;4986556;28;89798;-70
2023/10/15 02:15:43;;;;;;;;;;;;;;;;;;4986808;28;88957;-70
2023/10/15 02:18:13;;;;;;;;;;;;;;;;;;4986583;28;89173;-69
2023/10/15 02:21:00;;;;;;;;;;;;;;;;;;4986645;28;89024;-71
2023/10/15 02:23:26;;;;;;;;;;;;;;;;;;4986389;28;90685;-69
2023/10/15 02:26:00;;;;;;;;;;;;;;;;;;4986433;28;89566;-70
2023/10/15 02:28:26;;;;;;;;;;;;;;;;;;4986451;28;89384;-70
2023/10/15 02:30:58;;;;;;;;;;;;;;;;;;4986394;28;89672;-71
2023/10/15 02:33:25;;;;;;;;;;;;;;;;;;4985346;28;90250;-69
2023/10/15 02:35:54;;;;;;;;;;;;;;;;;;4988570;28;90065;-70
2023/10/15 02:38:20;;;;;;;;;;;;;;;;;;4984201;28;90453;-72
2023/10/15 02:41:05;;;;;;;;;;;;;;;;;;4986183;28;89516;-70
2023/10/15 02:43:31;;;;;;;;;;;;;;;;;;4985994;28;89909;-69
2023/10/15 02:48:41;;;;;;;;;;;;;;;;;;4986140;28;89501;-70
2023/10/15 02:51:10;;;;;;;;;;;;;;;;;;5000457;28;90848;-69
2023/10/15 02:53:38;;;;;;;;;;;;;;;;;;4984512;28;90336;-70
2023/10/15 02:56:10;;;;;;;;;;;;;;;;;;4985996;28;89156;-69
2023/10/15 02:58:35;;;;;;;;;;;;;;;;;;4988175;28;90738;-68
2023/10/15 03:01:06;;;;;;;;;;;;;;;;;;4970736;28;89940;-69
2023/10/15 03:03:34;;;;;;;;;;;;;;;;;;4985451;28;89459;-68
2023/10/15 03:06:00;;;;;;;;;;;;;;;;;;4984670;28;89218;-68
2023/10/15 03:08:31;;;;;;;;;;;;;;;;;;4982696;28;89418;-68
2023/10/15 03:11:11;;;;;;;;;;;;;;;;;;4988519;28;89813;-71
2023/10/15 03:13:44;;;;;;;;;;;;;;;;;;4989447;28;89398;-71
2023/10/15 03:16:10;;;;;;;;;;;;;;;;;;4989093;28;89652;-70
2023/10/15 03:18:35;;;;;;;;;;;;;;;;;;4987389;28;89786;-69
2023/10/15 03:21:14;;;;;;;;;;;;;;;;;;4997192;28;89677;-69
2023/10/15 03:23:41;;;;;;;;;;;;;;;;;;5002094;28;90625;-70
2023/10/15 03:26:06;;;;;;;;;;;;;;;;;;4988330;28;89651;-69
2023/10/15 03:28:34;;;;;;;;;;;;;;;;;;4978050;28;89372;-70
2023/10/15 03:31:00;;;;;;;;;;;;;;;;;;4968990;28;89514;-69
2023/10/15 03:33:30;;;;;;;;;;;;;;;;;;4968782;28;89596;-69
2023/10/15 03:35:55;;;;;;;;;;;;;;;;;;4968459;28;89488;-69
2023/10/15 03:38:32;;;;;;;;;;;;;;;;;;4968485;28;89514;-70
2023/10/15 03:41:11;;;;;;;;;;;;;;;;;;4968673;28;90274;-71
2023/10/15 03:43:36;;;;;;;;;;;;;;;;;;4987361;28;89377;-70
2023/10/15 03:46:17;;;;;;;;;;;;;;;;;;4988531;28;89387;-70
2023/10/15 03:48:47;;;;;;;;;;;;;;;;;;4987805;28;89398;-69
2023/10/15 03:51:20;;;;;;;;;;;;;;;;;;4988272;28;89524;-69
2023/10/15 03:53:49;;;;;;;;;;;;;;;;;;4969942;28;89372;-68
2023/10/15 03:56:18;;;;;;;;;;;;;;;;;;4969195;28;89320;-68
2023/10/15 03:58:44;;;;;;;;;;;;;;;;;;4969002;28;91187;-68
2023/10/15 04:03:42;;;;;;;;;;;;;;;;;;4969111;28;89065;-68
2023/10/15 04:06:07;;;;;;;;;;;;;;;;;;4970649;28;89639;-69
2023/10/15 04:08:32;;;;;;;;;;;;;;;;;;4967723;28;89511;-68
2023/10/15 04:10:58;;;;;;;;;;;;;;;;;;4969345;28;90694;-68
2023/10/15 04:13:26;;;;;;;;;;;;;;;;;;4969039;28;89741;-68
2023/10/15 04:15:51;;;;;;;;;;;;;;;;;;4969563;28;89551;-72
2023/10/15 04:18:17;;;;;;;;;;;;;;;;;;4971360;28;89559;-70
2023/10/15 04:20:42;;;;;;;;;;;;;;;;;;4968848;28;89766;-70
2023/10/15 04:23:12;;;;;;;;;;;;;;;;;;4972575;28;89051;-71
2023/10/15 04:25:37;;;;;;;;;;;;;;;;;;4988826;28;89491;-70
2023/10/15 04:28:11;;;;;;;;;;;;;;;;;;4988264;28;89148;-68
2023/10/15 04:30:38;;;;;;;;;;;;;;;;;;4988518;28;89487;-68
2023/10/15 04:33:09;;;;;;;;;;;;;;;;;;4969477;28;89231;-68
2023/10/15 04:35:37;;;;;;;;;;;;;;;;;;4968494;28;88962;-67
2023/10/15 04:38:06;;;;;;;;;;;;;;;;;;4967970;28;89754;-68
2023/10/15 04:40:39;;;;;;;;;;;;;;;;;;4974664;28;89454;-69
2023/10/15 04:43:04;;;;;;;;;;;;;;;;;;4989437;28;89701;-68
2023/10/15 04:48:01;;;;;;;;;;;;;;;;;;4991537;28;89285;-69
2023/10/15 04:50:32;;;;;;;;;;;;;;;;;;4989498;28;89684;-69
2023/10/15 04:55:43;;;;;;;;;;;;;;;;;;4957068;28;89485;-71
2023/10/15 04:58:09;;;;;;;;;;;;;;;;;;4989164;28;89586;-70
2023/10/15 05:00:37;;;;;;;;;;;;;;;;;;4990005;28;89109;-69
2023/10/15 05:03:04;;;;;;;;;;;;;;;;;;4989952;28;89165;-70
2023/10/15 05:05:31;;;;;;;;;;;;;;;;;;4985099;28;90596;-71
2023/10/15 05:07:59;;;;;;;;;;;;;;;;;;4968734;28;90195;-70
2023/10/15 05:10:27;;;;;;;;;;;;;;;;;;4973397;28;89181;-72
2023/10/15 05:12:52;;;;;;;;;;;;;;;;;;4968223;28;89773;-71
2023/10/15 05:15:18;;;;;;;;;;;;;;;;;;4967506;28;89026;-69
2023/10/15 05:17:46;;;;;;;;;;;;;;;;;;4967472;28;90652;-72
2023/10/15 05:20:13;;;;;;;;;;;;;;;;;;4990033;28;90389;-68
2023/10/15 05:22:38;;;;;;;;;;;;;;;;;;4984628;28;89596;-68
2023/10/15 05:25:04;;;;;;;;;;;;;;;;;;4984517;28;89496;-66
2023/10/15 05:27:29;;;;;;;;;;;;;;;;;;4983701;28;89315;-68
2023/10/15 05:29:54;;;;;;;;;;;;;;;;;;4968365;28;89574;-67
2023/10/15 05:32:19;;;;;;;;;;;;;;;;;;4985364;28;90128;-67
2023/10/15 05:34:45;;;;;;;;;;;;;;;;;;4983915;28;89948;-68
2023/10/15 05:37:10;;;;;;;;;;;;;;;;;;4984241;28;89359;-67
2023/10/15 05:39:36;;;;;;;;;;;;;;;;;;4981171;28;89696;-66
2023/10/15 05:42:01;;;;;;;;;;;;;;;;;;4966715;28;89529;-67
2023/10/15 05:44:26;;;;;;;;;;;;;;;;;;4985351;28;90833;-67
2023/10/15 05:46:51;;;;;;;;;;;;;;;;;;4985117;28;89389;-67
2023/10/15 05:49:17;;;;;;;;;;;;;;;;;;4984945;28;89163;-66
2023/10/15 05:51:42;;;;;;;;;;;;;;;;;;4980709;28;93194;-67
2023/10/15 05:54:09;;;;;;;;;;;;;;;;;;4987165;28;89837;-67
2023/10/15 05:56:34;;;;;;;;;;;;;;;;;;4983768;28;90875;-66
2023/10/15 05:58:59;;;;;;;;;;;;;;;;;;4984269;28;89391;-68
2023/10/15 06:01:24;;;;;;;;;;;;;;;;;;4984157;28;89653;-67
2023/10/15 06:03:50;;;;;;;;;;;;;;;;;;4982564;28;89724;-68
2023/10/15 06:06:15;;;;;;;;;;;;;;;;;;4982038;28;89985;-66
2023/10/15 06:08:41;;;;;;;;;;;;;;;;;;4983188;28;90095;-67
2023/10/15 06:11:06;;;;;;;;;;;;;;;;;;4984080;28;91049;-69
2023/10/15 06:13:31;;;;;;;;;;;;;;;;;;4985524;28;90434;-67
2023/10/15 06:15:57;;;;;;;;;;;;;;;;;;4982089;28;90952;-67
2023/10/15 06:18:22;;;;;;;;;;;;;;;;;;4980750;28;89705;-67
2023/10/15 06:20:48;;;;;;;;;;;;;;;;;;4969775;28;90087;-66
2023/10/15 06:23:14;;;;;;;;;;;;;;;;;;4983473;28;89402;-67
2023/10/15 06:25:39;;;;;;;;;;;;;;;;;;4984228;28;89609;-69
2023/10/15 06:28:05;;;;;;;;;;;;;;;;;;4985712;28;89077;-66
2023/10/15 06:30:30;;;;;;;;;;;;;;;;;;4985146;28;90933;-68
2023/10/15 06:32:56;;;;;;;;;;;;;;;;;;4983360;28;90259;-68
2023/10/15 06:35:22;;;;;;;;;;;;;;;;;;4986959;28;89407;-71
2023/10/15 06:37:49;;;;;;;;;;;;;;;;;;4984111;28;90291;-68
2023/10/15 06:40:16;;;;;;;;;;;;;;;;;;4984806;28;89506;-71
2023/10/15 06:42:41;;;;;;;;;;;;;;;;;;4982169;28;90407;-72
2023/10/15 06:45:07;;;;;;;;;;;;;;;;;;4986114;28;90554;-73
2023/10/15 06:47:33;;;;;;;;;;;;;;;;;;4985794;28;89594;-70
2023/10/15 06:49:58;;;;;;;;;;;;;;;;;;4983756;28;92678;-70
2023/10/15 06:52:24;;;;;;;;;;;;;;;;;;4984539;28;90847;-71
2023/10/15 06:54:49;;;;;;;;;;;;;;;;;;4984328;28;90008;-70
2023/10/15 06:57:17;;;;;;;;;;;;;;;;;;4987611;28;89756;-67
2023/10/15 06:59:43;;;;;;;;;;;;;;;;;;4984844;28;89195;-71
2023/10/15 07:02:09;;;;;;;;;;;;;;;;;;4985353;28;90558;-72
2023/10/15 07:04:34;;;;;;;;;;;;;;;;;;4986255;28;90689;-69
2023/10/15 07:06:59;;;;;;;;;;;;;;;;;;4986022;28;90174;-68
2023/10/15 07:09:27;;;;;;;;;;;;;;;;;;4985792;28;90856;-73
2023/10/15 07:11:53;;;;;;;;;;;;;;;;;;4986782;28;92033;-71
2023/10/15 07:14:18;;;;;;;;;;;;;;;;;;4987168;28;89773;-73
2023/10/15 07:16:43;;;;;;;;;;;;;;;;;;4985539;28;89712;-71
2023/10/15 07:19:08;;;;;;;;;;;;;;;;;;4988448;28;89765;-69
2023/10/15 07:21:34;;;;;;;;;;;;;;;;;;4984897;28;89629;-68
2023/10/15 07:23:59;;;;;;;;;;;;;;;;;;4985606;28;90874;-68
2023/10/15 07:26:24;;;;;;;;;;;;;;;;;;4986721;28;89724;-68
2023/10/15 07:28:50;;;;;;;;;;;;;;;;;;4985268;28;89526;-72
2023/10/15 07:31:15;;;;;;;;;;;;;;;;;;4985158;28;89463;-74
2023/10/15 07:33:41;;;;;;;;;;;;;;;;;;4985477;28;89252;-72
2023/10/15 07:36:07;;;;;;;;;;;;;;;;;;4984727;28;92235;-73
2023/10/15 07:38:33;;;;;;;;;;;;;;;;;;4983284;28;90132;-70
2023/10/15 07:40:59;;;;;;;;;;;;;;;;;;4988493;28;89518;-73
2023/10/15 07:43:25;;;;;;;;;;;;;;;;;;4985684;28;90331;-75
2023/10/15 07:45:50;;;;;;;;;;;;;;;;;;4966835;28;90584;-72
2023/10/15 07:48:16;;;;;;;;;;;;;;;;;;4981275;28;91940;-72
2023/10/15 07:50:43;;;;;;;;;;;;;;;;;;4966958;28;90216;-72
2023/10/15 07:53:08;;;;;;;;;;;;;;;;;;4984888;28;89260;-72
2023/10/15 07:55:33;;;;;;;;;;;;;;;;;;4984628;28;89620;-73
2023/10/15 07:57:59;;;;;;;;;;;;;;;;;;4982757;28;90434;-73
2023/10/15 08:00:26;;;;;;;;;;;;;;;;;;4978192;28;90337;-73
2023/10/15 08:02:57;;;;;;;;;;;;;;;;;;4984235;28;91601;-68
2023/10/15 08:05:22;;;;;;;;;;;;;;;;;;4982271;28;89540;-70
2023/10/15 08:07:50;;;;;;;;;;;;;;;;;;4982071;28;90620;-67
2023/10/15 08:10:17;;;;;;;;;;;;;;;;;;4982299;28;90367;-71
2023/10/15 08:12:42;;;;;;;;;;;;;;;;;;4983481;28;89244;-69
2023/10/15 08:15:08;;;;;;;;;;;;;;;;;;4977286;28;89791;-68
2023/10/15 08:17:33;;;;;;;;;;;;;;;;;;4982502;28;90143;-69
2023/10/15 08:19:59;;;;;;;;;;;;;;;;;;4980919;28;90862;-73
2023/10/15 08:22:25;;;;;;;;;;;;;;;;;;4963079;28;92493;-74
2023/10/15 08:24:50;;;;;;;;;;;;;;;;;;4984894;28;89871;-69
2023/10/15 08:27:16;;;;;;;;;;;;;;;;;;4979951;28;89909;-72
2023/10/15 08:29:41;;;;;;;;;;;;;;;;;;4978626;28;89778;-72
2023/10/15 08:32:10;;;;;;;;;;;;;;;;;;4981019;28;91898;-73
2023/10/15 08:34:35;;;;;;;;;;;;;;;;;;4977797;28;92705;-70
2023/10/15 08:37:02;;;;;;;;;;;;;;;;;;4983193;28;89916;-73
2023/10/15 08:39:27;;;;;;;;;;;;;;;;;;4982360;28;90013;-73
2023/10/15 08:41:54;;;;;;;;;;;;;;;;;;4981280;28;90808;-70
2023/10/15 08:44:19;;;;;;;;;;;;;;;;;;4986352;28;89510;-68
2023/10/15 08:46:46;;;;;;;;;;;;;;;;;;4983517;28;89782;-68
2023/10/15 08:49:15;;;;;;;;;;;;;;;;;;4979149;28;89763;-67
2023/10/15 08:51:41;;;;;;;;;;;;;;;;;;4980234;28;90394;-68
2023/10/15 08:54:08;;;;;;;;;;;;;;;;;;4978176;28;90207;-68
2023/10/15 08:56:33;;;;;;;;;;;;;;;;;;4979513;28;90278;-69
2023/10/15 08:58:59;;;;;;;;;;;;;;;;;;4981395;28;89149;-68
2023/10/15 09:01:25;;;;;;;;;;;;;;;;;;4978088;28;89827;-68
2023/10/15 09:03:53;;;;;;;;;;;;;;;;;;4983335;28;91593;-68
2023/10/15 09:06:19;;;;;;;;;;;;;;;;;;4983756;28;89718;-69
2023/10/15 09:08:50;;;;;;;;;;;;;;;;;;4983446;28;89513;-72
2023/10/15 09:11:16;;;;;;;;;;;;;;;;;;4984485;28;89608;-68
2023/10/15 09:13:41;;;;;;;;;;;;;;;;;;4983142;28;90152;-68
2023/10/15 09:16:08;;;;;;;;;;;;;;;;;;4984012;28;89708;-69
2023/10/15 09:18:35;;;;;;;;;;;;;;;;;;4998578;28;90406;-74
2023/10/15 09:21:03;;;;;;;;;;;;;;;;;;4983610;28;89972;-68
2023/10/15 09:23:35;;;;;;;;;;;;;;;;;;4983704;28;90325;-68
2023/10/15 09:26:01;;;;;;;;;;;;;;;;;;4984166;28;89388;-69
2023/10/15 09:28:29;;;;;;;;;;;;;;;;;;4985485;28;89965;-69
2023/10/15 09:31:07;;;;;;;;;;;;;;;;;;4980199;28;91203;-73
2023/10/15 09:33:32;;;;;;;;;;;;;;;;;;4981847;28;89621;-68
2023/10/15 09:35:58;;;;;;;;;;;;;;;;;;4982366;28;89132;-69
2023/10/15 09:38:25;;;;;;;;;;;;;;;;;;4981355;28;90250;-69
2023/10/15 09:40:55;;;;;;;;;;;;;;;;;;4984564;28;89705;-71
2023/10/15 09:43:23;;;;;;;;;;;;;;;;;;4967200;28;92478;-70
2023/10/15 09:45:49;;;;;;;;;;;;;;;;;;4984276;28;89669;-70
2023/10/15 09:48:15;;;;;;;;;;;;;;;;;;2359691;28;10000731;-71
2023/10/15 09:50:41;;;;;;;;;;;;;;;;;;4097931;28;10000688;-67
2023/10/15 09:53:10;;;;;;;;;;;;;;;;;;4984439;28;89903;-69
2023/10/15 09:55:35;;;;;;;;;;;;;;;;;;4981267;28;90342;-68
2023/10/15 09:58:04;;;;;;;;;;;;;;;;;;4981810;28;89843;-70
2023/10/15 10:00:46;;;;;;;;;;;;;;;;;;4965796;28;92023;-71
2023/10/15 10:03:25;;;;;;;;;;;;;;;;;;4981883;28;89440;-70
2023/10/15 10:05:58;;;;;;;;;;;;;;;;;;4977294;28;90704;-68
2023/10/15 10:08:32;;;;;;;;;;;;;;;;;;4977928;28;90744;-67
2023/10/15 10:11:17;;;;;;;;;;;;;;;;;;4980727;28;89553;-72
2023/10/15 10:14:02;;;;;;;;;;;;;;;;;;4983667;28;90639;-70
2023/10/15 10:16:28;;;;;;;;;;;;;;;;;;4981747;28;90458;-71
2023/10/15 10:18:55;;;;;;;;;;;;;;;;;;4982879;28;90136;-70
2023/10/15 10:21:22;;;;;;;;;;;;;;;;;;4985781;28;90315;-68
2023/10/15 10:23:52;;;;;;;;;;;;;;;;;;4987912;28;89573;-71
2023/10/15 10:26:19;;;;;;;;;;;;;;;;;;4999174;28;90718;-75
2023/10/15 10:28:45;;;;;;;;;;;;;;;;;;4966632;28;92150;-70
2023/10/15 10:31:11;;;;;;;;;;;;;;;;;;4982038;28;90617;-66
2023/10/15 10:33:43;;;;;;;;;;;;;;;;;;4986950;28;90851;-67
2023/10/15 10:36:15;;;;;;;;;;;;;;;;;;4989387;28;89783;-66
2023/10/15 10:38:44;;;;;;;;;;;;;;;;;;4985613;28;90719;-66
2023/10/15 10:41:12;;;;;;;;;;;;;;;;;;4984870;28;89512;-66
2023/10/15 10:43:40;;;;;;;;;;;;;;;;;;4987140;28;89191;-67
2023/10/15 10:46:06;;;;;;;;;;;;;;;;;;4986599;28;90857;-67
2023/10/15 10:48:39;;;;;;;;;;;;;;;;;;4985363;28;89433;-67
2023/10/15 10:51:15;;;;;;;;;;;;;;;;;;4984427;28;89027;-67
2023/10/15 10:54:02;;;;;;;;;;;;;;;;;;4986644;28;90864;-67
2023/10/15 10:56:40;;;;;;;;;;;;;;;;;;4977431;28;89935;-70
2023/10/15 10:59:06;;;;;;;;;;;;;;;;;;4987646;28;89571;-69
2023/10/15 11:01:37;;;;;;;;;;;;;;;;;;4986385;28;90261;-68
2023/10/15 11:04:03;;;;;;;;;;;;;;;;;;4996981;28;90737;-73
2023/10/15 11:06:28;;;;;;;;;;;;;;;;;;4987037;28;90939;-70
2023/10/15 11:08:53;;;;;;;;;;;;;;;;;;4984245;28;90479;-66
2023/10/15 11:11:19;;;;;;;;;;;;;;;;;;4986379;28;90228;-67
2023/10/15 11:13:46;;;;;;;;;;;;;;;;;;4985206;28;89995;-72
2023/10/15 11:16:12;;;;;;;;;;;;;;;;;;4985401;28;89222;-68
2023/10/15 11:18:39;;;;;;;;;;;;;;;;;;4988518;28;89096;-68
2023/10/15 11:21:04;;;;;;;;;;;;;;;;;;4985746;28;91009;-71
2023/10/15 11:23:29;;;;;;;;;;;;;;;;;;4986477;28;90629;-68
2023/10/15 11:25:55;;;;;;;;;;;;;;;;;;4985438;28;89785;-67
2023/10/15 11:28:21;;;;;;;;;;;;;;;;;;4986125;28;91185;-69
2023/10/15 11:30:46;;;;;;;;;;;;;;;;;;4972438;28;90845;-71
2023/10/15 11:33:12;;;;;;;;;;;;;;;;;;4985571;28;90052;-69
2023/10/15 11:35:38;;;;;;;;;;;;;;;;;;4985373;28;89771;-75
2023/10/15 11:38:09;;;;;;;;;;;;;;;;;;4985869;28;90138;-72
2023/10/15 11:40:37;;;;;;;;;;;;;;;;;;4986764;28;90518;-72
2023/10/15 11:43:02;;;;;;;;;;;;;;;;;;4985241;28;89881;-69
2023/10/15 11:45:30;;;;;;;;;;;;;;;;;;4984513;28;89598;-70
2023/10/15 11:47:58;;;;;;;;;;;;;;;;;;4983185;28;89424;-75
2023/10/15 11:50:24;;;;;;;;;;;;;;;;;;4982546;28;89033;-70
2023/10/15 11:52:50;;;;;;;;;;;;;;;;;;4981449;28;89576;-72
2023/10/15 11:55:22;;;;;;;;;;;;;;;;;;4981621;28;90321;-70
2023/10/15 11:57:51;;;;;;;;;;;;;;;;;;4962330;28;89821;-77
2023/10/15 12:00:23;;;;;;;;;;;;;;;;;;4979759;28;91115;-71
2023/10/15 12:02:51;;;;;;;;;;;;;;;;;;4982203;28;90441;-72
2023/10/15 12:05:16;;;;;;;;;;;;;;;;;;4981670;28;90580;-70
2023/10/15 12:07:42;;;;;;;;;;;;;;;;;;4984405;28;89507;-70
2023/10/15 12:10:14;;;;;;;;;;;;;;;;;;4984651;28;89542;-71
2023/10/15 12:12:40;;;;;;;;;;;;;;;;;;4984796;28;90781;-71
2023/10/15 12:15:06;;;;;;;;;;;;;;;;;;4984034;28;89587;-66
2023/10/15 12:17:31;;;;;;;;;;;;;;;;;;4984460;28;90297;-71
2023/10/15 12:19:56;;;;;;;;;;;;;;;;;;4983958;28;89780;-70
2023/10/15 12:22:21;;;;;;;;;;;;;;;;;;4982304;28;90560;-70
2023/10/15 12:24:47;;;;;;;;;;;;;;;;;;4985980;28;89161;-68
2023/10/15 12:27:12;;;;;;;;;;;;;;;;;;4982736;28;90994;-69
2023/10/15 12:29:38;;;;;;;;;;;;;;;;;;4982525;28;89455;-67
2023/10/15 12:32:07;;;;;;;;;;;;;;;;;;4983774;28;90835;-69
2023/10/15 12:34:33;;;;;;;;;;;;;;;;;;4985446;28;90378;-70
2023/10/15 12:36:58;;;;;;;;;;;;;;;;;;4982507;28;89053;-73
2023/10/15 12:39:29;;;;;;;;;;;;;;;;;;4998577;28;93008;-71
2023/10/15 12:41:55;;;;;;;;;;;;;;;;;;4980962;28;89155;-67
2023/10/15 12:44:21;;;;;;;;;;;;;;;;;;4982370;28;89494;-70
2023/10/15 12:46:47;;;;;;;;;;;;;;;;;;4985908;28;89970;-71
2023/10/15 12:49:13;;;;;;;;;;;;;;;;;;4982771;28;89630;-71
2023/10/15 12:51:38;;;;;;;;;;;;;;;;;;4982443;28;89413;-66
2023/10/15 12:54:04;;;;;;;;;;;;;;;;;;4982483;28;89757;-68
2023/10/15 12:56:30;;;;;;;;;;;;;;;;;;4984311;28;89801;-72
2023/10/15 12:58:56;;;;;;;;;;;;;;;;;;4981348;28;90366;-70
2023/10/15 13:01:21;;;;;;;;;;;;;;;;;;4982776;28;89701;-69
2023/10/15 13:03:47;;;;;;;;;;;;;;;;;;4982730;28;90186;-66
2023/10/15 13:06:12;;;;;;;;;;;;;;;;;;4983342;28;90170;-66
2023/10/15 13:08:38;;;;;;;;;;;;;;;;;;4968418;28;92956;-71
2023/10/15 13:11:04;;;;;;;;;;;;;;;;;;4983555;28;89712;-69
2023/10/15 13:13:29;;;;;;;;;;;;;;;;;;4980038;28;90401;-68
2023/10/15 13:15:54;;;;;;;;;;;;;;;;;;4979739;28;90128;-69
2023/10/15 13:18:20;;;;;;;;;;;;;;;;;;4984934;28;89926;-69
2023/10/15 13:20:45;;;;;;;;;;;;;;;;;;4984367;28;89424;-70
2023/10/15 13:23:10;;;;;;;;;;;;;;;;;;4984280;28;90694;-66
2023/10/15 13:25:35;;;;;;;;;;;;;;;;;;4983206;28;90697;-68
2023/10/15 13:28:01;;;;;;;;;;;;;;;;;;4984850;28;90766;-68
2023/10/15 13:30:27;;;;;;;;;;;;;;;;;;4982651;28;90889;-72
2023/10/15 13:32:52;;;;;;;;;;;;;;;;;;4983298;28;91339;-71
2023/10/15 13:35:19;;;;;;;;;;;;;;;;;;4984131;28;90783;-68
2023/10/15 13:37:44;;;;;;;;;;;;;;;;;;4981848;28;90772;-66
2023/10/15 13:40:10;;;;;;;;;;;;;;;;;;4984313;28;89777;-68
2023/10/15 13:42:40;;;;;;;;;;;;;;;;;;4965149;28;90641;-67
2023/10/15 13:45:05;;;;;;;;;;;;;;;;;;4980832;28;89748;-66
2023/10/15 13:47:32;;;;;;;;;;;;;;;;;;4983229;28;91243;-70
2023/10/15 13:49:57;;;;;;;;;;;;;;;;;;4984350;28;89880;-69
2023/10/15 13:52:22;;;;;;;;;;;;;;;;;;4982911;28;90209;-69
2023/10/15 13:54:48;;;;;;;;;;;;;;;;;;4981465;28;90031;-67
2023/10/15 13:57:13;;;;;;;;;;;;;;;;;;4984430;28;89621;-68
2023/10/15 13:59:38;;;;;;;;;;;;;;;;;;4984365;28;90213;-67
2023/10/15 14:02:06;;;;;;;;;;;;;;;;;;4983692;28;89805;-68
2023/10/15 14:04:32;;;;;;;;;;;;;;;;;;4980602;28;92324;-68
2023/10/15 14:06:57;;;;;;;;;;;;;;;;;;4980262;28;90434;-69
2023/10/15 14:09:25;;;;;;;;;;;;;;;;;;4981955;28;89092;-71
2023/10/15 14:11:50;;;;;;;;;;;;;;;;;;4988784;28;89995;-65
2023/10/15 14:14:15;;;;;;;;;;;;;;;;;;4983287;28;90327;-67
2023/10/15 14:16:41;;;;;;;;;;;;;;;;;;4983131;28;90834;-66
2023/10/15 14:19:06;;;;;;;;;;;;;;;;;;4982704;28;90846;-66
2023/10/15 14:21:31;;;;;;;;;;;;;;;;;;4982272;28;90220;-66
2023/10/15 14:23:57;;;;;;;;;;;;;;;;;;4983655;28;92302;-66
2023/10/15 14:26:23;;;;;;;;;;;;;;;;;;4984337;28;89092;-66
2023/10/15 14:28:48;;;;;;;;;;;;;;;;;;4984105;28;89144;-65
2023/10/15 14:31:15;;;;;;;;;;;;;;;;;;4983613;28;90315;-65
2023/10/15 14:33:41;;;;;;;;;;;;;;;;;;4987055;28;90326;-65
2023/10/15 14:36:07;;;;;;;;;;;;;;;;;;4984122;28;90295;-65
2023/10/15 14:38:32;;;;;;;;;;;;;;;;;;4984196;28;89410;-64
2023/10/15 14:40:58;;;;;;;;;;;;;;;;;;4983985;28;89655;-65
2023/10/15 14:43:23;;;;;;;;;;;;;;;;;;4982348;28;90526;-65
2023/10/15 14:45:49;;;;;;;;;;;;;;;;;;4980669;28;89417;-65
2023/10/15 14:48:17;;;;;;;;;;;;;;;;;;4983529;28;89915;-71
2023/10/15 14:50:43;;;;;;;;;;;;;;;;;;4982955;28;90471;-65
2023/10/15 14:53:08;;;;;;;;;;;;;;;;;;4983358;28;89625;-66
2023/10/15 14:55:35;;;;;;;;;;;;;;;;;;4983125;28;90273;-65
2023/10/15 14:58:00;;;;;;;;;;;;;;;;;;4982846;28;90300;-65
2023/10/15 15:00:26;;;;;;;;;;;;;;;;;;4981671;28;90331;-65
2023/10/15 15:02:51;;;;;;;;;;;;;;;;;;4983082;28;90747;-65
2023/10/15 15:05:16;;;;;;;;;;;;;;;;;;4983785;28;89622;-66
2023/10/15 15:07:42;;;;;;;;;;;;;;;;;;4985249;28;89379;-66
2023/10/15 15:10:07;;;;;;;;;;;;;;;;;;4985908;28;93013;-65
2023/10/15 15:12:33;;;;;;;;;;;;;;;;;;4986245;28;89894;-65
2023/10/15 15:14:58;;;;;;;;;;;;;;;;;;4986083;28;89614;-66
2023/10/15 15:17:23;;;;;;;;;;;;;;;;;;4988876;28;89573;-66
2023/10/15 15:19:49;;;;;;;;;;;;;;;;;;4984289;28;89440;-65
2023/10/15 15:22:15;;;;;;;;;;;;;;;;;;4983837;28;91028;-66
2023/10/15 15:24:41;;;;;;;;;;;;;;;;;;4984927;28;90551;-65
2023/10/15 15:27:06;;;;;;;;;;;;;;;;;;4986030;28;89745;-65
2023/10/15 15:29:31;;;;;;;;;;;;;;;;;;4984621;28;89606;-66
2023/10/15 15:31:57;;;;;;;;;;;;;;;;;;4985582;28;90315;-66
2023/10/15 15:34:22;;;;;;;;;;;;;;;;;;4973560;28;90283;-65
2023/10/15 15:36:48;;;;;;;;;;;;;;;;;;4988152;28;90668;-66
2023/10/15 15:39:13;;;;;;;;;;;;;;;;;;4984789;28;90001;-65
2023/10/15 15:41:38;;;;;;;;;;;;;;;;;;4983194;28;89496;-66
2023/10/15 15:44:04;;;;;;;;;;;;;;;;;;4984819;28;89708;-66
2023/10/15 15:46:30;;;;;;;;;;;;;;;;;;4983340;28;89210;-66
2023/10/15 15:48:56;;;;;;;;;;;;;;;;;;4970495;28;90232;-66
2023/10/15 15:51:22;;;;;;;;;;;;;;;;;;4984913;28;90507;-66
2023/10/15 15:53:48;;;;;;;;;;;;;;;;;;4984839;28;89316;-65
2023/10/15 15:56:14;;;;;;;;;;;;;;;;;;4985039;28;89914;-65
2023/10/15 15:58:39;;;;;;;;;;;;;;;;;;4985945;28;89193;-66
2023/10/15 16:01:04;;;;;;;;;;;;;;;;;;4983500;28;89761;-66
2023/10/15 16:03:32;;;;;;;;;;;;;;;;;;4985207;28;89573;-66
2023/10/15 16:06:01;;;;;;;;;;;;;;;;;;4979320;28;90012;-66
2023/10/15 16:08:26;;;;;;;;;;;;;;;;;;4982111;28;91308;-67
2023/10/15 16:10:51;;;;;;;;;;;;;;;;;;4984892;28;89586;-65
2023/10/15 16:13:17;;;;;;;;;;;;;;;;;;4985017;28;90058;-65
2023/10/15 16:15:43;;;;;;;;;;;;;;;;;;4984458;28;90050;-65
2023/10/15 16:18:08;;;;;;;;;;;;;;;;;;4981229;28;90748;-65
2023/10/15 16:20:33;;;;;;;;;;;;;;;;;;4986801;28;89218;-66
2023/10/15 16:23:00;;;;;;;;;;;;;;;;;;4983971;28;89181;-65
2023/10/15 16:25:25;;;;;;;;;;;;;;;;;;4984004;28;89647;-65
2023/10/15 16:27:51;;;;;;;;;;;;;;;;;;4984637;28;89717;-66
2023/10/15 16:30:16;;;;;;;;;;;;;;;;;;4983020;28;89579;-66
2023/10/15 16:32:42;;;;;;;;;;;;;;;;;;4984576;28;89919;-65
2023/10/15 16:35:16;;;;;;;;;;;;;;;;;;4983573;28;89462;-65
2023/10/15 16:37:41;;;;;;;;;;;;;;;;;;4981530;28;92183;-65
2023/10/15 16:40:08;;;;;;;;;;;;;;;;;;4984658;28;89666;-65
2023/10/15 16:42:34;;;;;;;;;;;;;;;;;;4987023;28;90718;-70
2023/10/15 16:44:59;;;;;;;;;;;;;;;;;;4984119;28;89761;-66
2023/10/15 16:47:24;;;;;;;;;;;;;;;;;;4984351;28;89693;-65
2023/10/15 16:49:50;;;;;;;;;;;;;;;;;;4984617;28;89938;-65
2023/10/15 16:52:15;;;;;;;;;;;;;;;;;;4984121;28;89862;-66
2023/10/15 16:54:40;;;;;;;;;;;;;;;;;;4966994;28;92545;-65
2023/10/15 16:57:06;;;;;;;;;;;;;;;;;;4984318;28;90999;-66
2023/10/15 16:59:31;;;;;;;;;;;;;;;;;;4984199;28;89316;-66
2023/10/15 17:01:56;;;;;;;;;;;;;;;;;;4966787;28;92450;-66